sensor_id;sensor_type;location;lat;lon;timestamp;temperature;humidity
53073;DHT22;38955;48.916;2.336;2024-02-15T00:01:51;14.50;99.90
53073;DHT22;38955;48.916;2.336;2024-02-15T00:04:04;14.50;99.90
53073;DHT22;38955;48.916;2.336;2024-02-15T00:06:16;14.40;99.90
53073;DHT22;38955;48.916;2.336;2024-02-15T00:08:31;14.40;99.90
53073;DHT22;38955;48.916;2.336;2024-02-15T00:10:46;14.40;99.90
53073;DHT22;38955;48.916;2.336;2024-02-15T00:13:02;14.40;99.90
53073;DHT22;38955;48.916;2.336;2024-02-15T00:15:15;14.40;99.90
53073;DHT22;38955;48.916;2.336;2024-02-15T00:17:30;14.50;99.90
53073;DHT22;38955;48.916;2.336;2024-02-15T00:19:46;14.40;99.90
53073;DHT22;38955;48.916;2.336;2024-02-15T00:22:02;14.50;99.90
53073;DHT22;38955;48.916;2.336;2024-02-15T00:24:38;14.40;99.90
53073;DHT22;38955;48.916;2.336;2024-02-15T00:26:59;14.40;99.90
53073;DHT22;38955;48.916;2.336;2024-02-15T00:29:14;14.40;99.90
53073;DHT22;38955;48.916;2.336;2024-02-15T00:31:28;14.40;99.90
53073;DHT22;38955;48.916;2.336;2024-02-15T00:33:41;14.30;99.90
53073;DHT22;38955;48.916;2.336;2024-02-15T00:36:01;14.30;99.90
53073;DHT22;38955;48.916;2.336;2024-02-15T00:38:17;14.30;99.90
53073;DHT22;38955;48.916;2.336;2024-02-15T00:40:33;14.20;99.90
53073;DHT22;38955;48.916;2.336;2024-02-15T00:42:46;14.20;99.90
53073;DHT22;38955;48.916;2.336;2024-02-15T00:44:55;14.20;99.90
53073;DHT22;38955;48.916;2.336;2024-02-15T00:47:05;14.20;99.90
53073;DHT22;38955;48.916;2.336;2024-02-15T00:49:17;14.20;99.90
53073;DHT22;38955;48.916;2.336;2024-02-15T00:51:35;14.20;99.90
53073;DHT22;38955;48.916;2.336;2024-02-15T00:53:44;14.20;99.90
53073;DHT22;38955;48.916;2.336;2024-02-15T00:55:59;14.10;99.90
53073;DHT22;38955;48.916;2.336;2024-02-15T00:58:15;14.20;99.90
53073;DHT22;38955;48.916;2.336;2024-02-15T01:00:33;14.20;99.90
53073;DHT22;38955;48.916;2.336;2024-02-15T01:02:45;14.20;99.90
53073;DHT22;38955;48.916;2.336;2024-02-15T01:05:01;14.20;99.90
53073;DHT22;38955;48.916;2.336;2024-02-15T01:07:15;14.10;99.90
53073;DHT22;38955;48.916;2.336;2024-02-15T01:09:30;14.20;99.90
53073;DHT22;38955;48.916;2.336;2024-02-15T01:12:00;14.10;99.90
53073;DHT22;38955;48.916;2.336;2024-02-15T01:14:23;14.10;99.90
53073;DHT22;38955;48.916;2.336;2024-02-15T01:16:53;14.10;99.90
53073;DHT22;38955;48.916;2.336;2024-02-15T01:19:10;14.10;99.90
53073;DHT22;38955;48.916;2.336;2024-02-15T01:21:32;14.20;99.90
53073;DHT22;38955;48.916;2.336;2024-02-15T01:23:53;14.20;99.90
53073;DHT22;38955;48.916;2.336;2024-02-15T01:26:14;14.20;99.90
53073;DHT22;38955;48.916;2.336;2024-02-15T01:28:29;14.20;99.90
53073;DHT22;38955;48.916;2.336;2024-02-15T01:30:40;14.20;99.90
53073;DHT22;38955;48.916;2.336;2024-02-15T01:32:57;14.20;99.90
53073;DHT22;38955;48.916;2.336;2024-02-15T01:35:09;14.20;99.90
53073;DHT22;38955;48.916;2.336;2024-02-15T01:37:22;14.20;99.90
53073;DHT22;38955;48.916;2.336;2024-02-15T01:39:32;14.20;99.90
53073;DHT22;38955;48.916;2.336;2024-02-15T01:41:55;14.20;99.90
53073;DHT22;38955;48.916;2.336;2024-02-15T01:44:27;14.20;99.90
53073;DHT22;38955;48.916;2.336;2024-02-15T01:46:47;14.20;99.90
53073;DHT22;38955;48.916;2.336;2024-02-15T01:49:08;14.20;99.90
53073;DHT22;38955;48.916;2.336;2024-02-15T01:51:27;14.20;99.90
53073;DHT22;38955;48.916;2.336;2024-02-15T01:53:42;14.20;99.90
53073;DHT22;38955;48.916;2.336;2024-02-15T01:55:58;14.10;99.90
53073;DHT22;38955;48.916;2.336;2024-02-15T01:58:12;14.10;99.90
53073;DHT22;38955;48.916;2.336;2024-02-15T02:00:28;14.10;99.90
53073;DHT22;38955;48.916;2.336;2024-02-15T02:02:44;14.20;99.90
53073;DHT22;38955;48.916;2.336;2024-02-15T02:04:54;14.10;99.90
53073;DHT22;38955;48.916;2.336;2024-02-15T02:07:06;14.10;99.90
53073;DHT22;38955;48.916;2.336;2024-02-15T02:09:16;14.10;99.90
53073;DHT22;38955;48.916;2.336;2024-02-15T02:11:32;14.10;99.90
53073;DHT22;38955;48.916;2.336;2024-02-15T02:13:43;14.10;99.90
53073;DHT22;38955;48.916;2.336;2024-02-15T02:15:57;14.10;99.90
53073;DHT22;38955;48.916;2.336;2024-02-15T02:18:09;14.10;99.90
53073;DHT22;38955;48.916;2.336;2024-02-15T02:20:21;14.10;99.90
53073;DHT22;38955;48.916;2.336;2024-02-15T02:22:38;14.10;99.90
53073;DHT22;38955;48.916;2.336;2024-02-15T02:25:07;14.10;99.90
53073;DHT22;38955;48.916;2.336;2024-02-15T02:27:22;14.10;99.90
53073;DHT22;38955;48.916;2.336;2024-02-15T02:29:32;14.10;99.90
53073;DHT22;38955;48.916;2.336;2024-02-15T02:31:45;14.10;99.90
53073;DHT22;38955;48.916;2.336;2024-02-15T02:33:56;14.10;99.90
53073;DHT22;38955;48.916;2.336;2024-02-15T02:36:14;14.10;99.90
53073;DHT22;38955;48.916;2.336;2024-02-15T02:38:30;14.10;99.90
53073;DHT22;38955;48.916;2.336;2024-02-15T02:40:54;14.00;99.90
53073;DHT22;38955;48.916;2.336;2024-02-15T02:43:18;14.00;99.90
53073;DHT22;38955;48.916;2.336;2024-02-15T02:45:39;14.00;99.90
53073;DHT22;38955;48.916;2.336;2024-02-15T02:47:58;14.10;99.90
53073;DHT22;38955;48.916;2.336;2024-02-15T02:50:29;14.00;99.90
53073;DHT22;38955;48.916;2.336;2024-02-15T02:53:19;14.00;99.90
53073;DHT22;38955;48.916;2.336;2024-02-15T02:55:42;14.00;99.90
53073;DHT22;38955;48.916;2.336;2024-02-15T02:58:15;14.10;99.90
53073;DHT22;38955;48.916;2.336;2024-02-15T03:00:38;14.00;99.90
53073;DHT22;38955;48.916;2.336;2024-02-15T03:03:04;14.00;99.90
53073;DHT22;38955;48.916;2.336;2024-02-15T03:05:27;13.90;99.90
53073;DHT22;38955;48.916;2.336;2024-02-15T03:07:45;13.90;99.90
53073;DHT22;38955;48.916;2.336;2024-02-15T03:10:06;13.80;99.90
53073;DHT22;38955;48.916;2.336;2024-02-15T03:12:36;13.90;99.90
53073;DHT22;38955;48.916;2.336;2024-02-15T03:14:52;13.90;99.90
53073;DHT22;38955;48.916;2.336;2024-02-15T03:17:03;13.90;99.90
53073;DHT22;38955;48.916;2.336;2024-02-15T03:19:15;13.90;99.90
53073;DHT22;38955;48.916;2.336;2024-02-15T03:21:31;13.80;99.90
53073;DHT22;38955;48.916;2.336;2024-02-15T03:23:51;13.90;99.90
53073;DHT22;38955;48.916;2.336;2024-02-15T03:26:02;13.90;99.90
53073;DHT22;38955;48.916;2.336;2024-02-15T03:28:15;13.80;99.90
53073;DHT22;38955;48.916;2.336;2024-02-15T03:30:33;13.80;99.90
53073;DHT22;38955;48.916;2.336;2024-02-15T03:32:46;13.80;99.90
53073;DHT22;38955;48.916;2.336;2024-02-15T03:35:06;13.80;99.90
53073;DHT22;38955;48.916;2.336;2024-02-15T03:37:21;13.90;99.90
53073;DHT22;38955;48.916;2.336;2024-02-15T03:39:34;13.80;99.90
53073;DHT22;38955;48.916;2.336;2024-02-15T03:41:45;13.80;99.90
53073;DHT22;38955;48.916;2.336;2024-02-15T03:43:58;13.80;99.90
53073;DHT22;38955;48.916;2.336;2024-02-15T03:46:12;13.80;99.90
53073;DHT22;38955;48.916;2.336;2024-02-15T03:48:27;13.80;99.90
53073;DHT22;38955;48.916;2.336;2024-02-15T03:50:42;13.80;99.90
53073;DHT22;38955;48.916;2.336;2024-02-15T03:52:59;13.80;99.90
53073;DHT22;38955;48.916;2.336;2024-02-15T03:55:20;13.80;99.90
53073;DHT22;38955;48.916;2.336;2024-02-15T03:57:46;13.80;99.90
53073;DHT22;38955;48.916;2.336;2024-02-15T04:00:08;13.70;99.90
53073;DHT22;38955;48.916;2.336;2024-02-15T04:02:31;13.60;99.90
53073;DHT22;38955;48.916;2.336;2024-02-15T04:04:44;13.70;99.90
53073;DHT22;38955;48.916;2.336;2024-02-15T04:06:58;13.60;99.90
53073;DHT22;38955;48.916;2.336;2024-02-15T04:09:09;13.60;99.90
53073;DHT22;38955;48.916;2.336;2024-02-15T04:11:27;13.70;99.90
53073;DHT22;38955;48.916;2.336;2024-02-15T04:13:45;13.70;99.90
53073;DHT22;38955;48.916;2.336;2024-02-15T04:15:58;13.60;99.90
53073;DHT22;38955;48.916;2.336;2024-02-15T04:18:23;13.70;99.90
53073;DHT22;38955;48.916;2.336;2024-02-15T04:20:35;13.60;99.90
53073;DHT22;38955;48.916;2.336;2024-02-15T04:22:49;13.60;99.90
53073;DHT22;38955;48.916;2.336;2024-02-15T04:25:06;13.60;99.90
53073;DHT22;38955;48.916;2.336;2024-02-15T04:27:35;13.70;99.90
53073;DHT22;38955;48.916;2.336;2024-02-15T04:30:07;13.60;99.90
53073;DHT22;38955;48.916;2.336;2024-02-15T04:32:19;13.60;99.90
53073;DHT22;38955;48.916;2.336;2024-02-15T04:34:34;13.50;99.90
53073;DHT22;38955;48.916;2.336;2024-02-15T04:36:50;13.50;99.90
53073;DHT22;38955;48.916;2.336;2024-02-15T04:39:09;13.50;99.90
53073;DHT22;38955;48.916;2.336;2024-02-15T04:41:34;13.50;99.90
53073;DHT22;38955;48.916;2.336;2024-02-15T04:44:03;13.50;99.90
53073;DHT22;38955;48.916;2.336;2024-02-15T04:46:20;13.50;99.90
53073;DHT22;38955;48.916;2.336;2024-02-15T04:48:41;13.60;99.90
53073;DHT22;38955;48.916;2.336;2024-02-15T04:51:00;13.60;99.90
53073;DHT22;38955;48.916;2.336;2024-02-15T04:53:19;13.60;99.90
53073;DHT22;38955;48.916;2.336;2024-02-15T04:55:41;13.60;99.90
53073;DHT22;38955;48.916;2.336;2024-02-15T04:58:04;13.60;99.90
53073;DHT22;38955;48.916;2.336;2024-02-15T05:00:17;13.60;99.90
53073;DHT22;38955;48.916;2.336;2024-02-15T05:02:30;13.60;99.90
53073;DHT22;38955;48.916;2.336;2024-02-15T05:04:52;13.60;99.90
53073;DHT22;38955;48.916;2.336;2024-02-15T05:07:21;13.60;99.90
53073;DHT22;38955;48.916;2.336;2024-02-15T05:09:35;13.60;99.90
53073;DHT22;38955;48.916;2.336;2024-02-15T05:11:46;13.60;99.90
53073;DHT22;38955;48.916;2.336;2024-02-15T05:14:06;13.60;99.90
53073;DHT22;38955;48.916;2.336;2024-02-15T05:16:29;13.60;99.90
53073;DHT22;38955;48.916;2.336;2024-02-15T05:18:51;13.60;99.90
53073;DHT22;38955;48.916;2.336;2024-02-15T05:21:14;13.60;99.90
53073;DHT22;38955;48.916;2.336;2024-02-15T05:23:49;13.50;99.90
53073;DHT22;38955;48.916;2.336;2024-02-15T05:26:11;13.60;99.90
53073;DHT22;38955;48.916;2.336;2024-02-15T05:28:41;13.50;99.90
53073;DHT22;38955;48.916;2.336;2024-02-15T05:31:12;13.50;99.90
53073;DHT22;38955;48.916;2.336;2024-02-15T05:33:31;13.60;99.90
53073;DHT22;38955;48.916;2.336;2024-02-15T05:35:54;13.60;99.90
53073;DHT22;38955;48.916;2.336;2024-02-15T05:38:15;13.50;99.90
53073;DHT22;38955;48.916;2.336;2024-02-15T05:40:51;13.50;99.90
53073;DHT22;38955;48.916;2.336;2024-02-15T05:43:31;13.50;99.90
53073;DHT22;38955;48.916;2.336;2024-02-15T05:46:22;13.50;99.90
53073;DHT22;38955;48.916;2.336;2024-02-15T05:48:40;13.50;99.90
53073;DHT22;38955;48.916;2.336;2024-02-15T05:50:56;13.50;99.90
53073;DHT22;38955;48.916;2.336;2024-02-15T05:53:16;13.50;99.90
53073;DHT22;38955;48.916;2.336;2024-02-15T05:55:30;13.40;99.90
53073;DHT22;38955;48.916;2.336;2024-02-15T05:58:04;13.50;99.90
53073;DHT22;38955;48.916;2.336;2024-02-15T06:00:30;13.50;99.90
53073;DHT22;38955;48.916;2.336;2024-02-15T06:03:15;13.50;99.90
53073;DHT22;38955;48.916;2.336;2024-02-15T06:05:27;13.50;99.90
53073;DHT22;38955;48.916;2.336;2024-02-15T06:07:38;13.40;99.90
53073;DHT22;38955;48.916;2.336;2024-02-15T06:09:50;13.40;99.90
53073;DHT22;38955;48.916;2.336;2024-02-15T06:12:01;13.40;99.90
53073;DHT22;38955;48.916;2.336;2024-02-15T06:14:13;13.40;99.90
53073;DHT22;38955;48.916;2.336;2024-02-15T06:16:25;13.40;99.90
53073;DHT22;38955;48.916;2.336;2024-02-15T06:18:38;13.40;99.90
53073;DHT22;38955;48.916;2.336;2024-02-15T06:20:50;13.50;99.90
53073;DHT22;38955;48.916;2.336;2024-02-15T06:23:01;13.50;99.90
53073;DHT22;38955;48.916;2.336;2024-02-15T06:25:16;13.50;99.90
53073;DHT22;38955;48.916;2.336;2024-02-15T06:27:31;13.50;99.90
53073;DHT22;38955;48.916;2.336;2024-02-15T06:29:45;13.40;99.90
53073;DHT22;38955;48.916;2.336;2024-02-15T06:32:12;13.30;99.90
53073;DHT22;38955;48.916;2.336;2024-02-15T06:34:42;13.30;99.90
53073;DHT22;38955;48.916;2.336;2024-02-15T06:37:11;13.20;99.90
53073;DHT22;38955;48.916;2.336;2024-02-15T06:40:01;13.20;99.90
53073;DHT22;38955;48.916;2.336;2024-02-15T06:42:13;13.20;99.90
53073;DHT22;38955;48.916;2.336;2024-02-15T06:44:31;13.20;99.90
53073;DHT22;38955;48.916;2.336;2024-02-15T06:46:45;13.20;99.90
53073;DHT22;38955;48.916;2.336;2024-02-15T06:48:57;13.30;99.90
53073;DHT22;38955;48.916;2.336;2024-02-15T06:51:16;13.30;99.90
53073;DHT22;38955;48.916;2.336;2024-02-15T06:53:27;13.30;99.90
53073;DHT22;38955;48.916;2.336;2024-02-15T06:55:38;13.30;99.90
53073;DHT22;38955;48.916;2.336;2024-02-15T06:57:52;13.30;99.90
53073;DHT22;38955;48.916;2.336;2024-02-15T07:00:12;13.20;99.90
53073;DHT22;38955;48.916;2.336;2024-02-15T07:02:32;13.20;99.90
53073;DHT22;38955;48.916;2.336;2024-02-15T07:04:46;13.20;99.90
53073;DHT22;38955;48.916;2.336;2024-02-15T07:06:56;13.10;99.90
53073;DHT22;38955;48.916;2.336;2024-02-15T07:09:06;13.10;99.90
53073;DHT22;38955;48.916;2.336;2024-02-15T07:11:23;13.10;99.90
53073;DHT22;38955;48.916;2.336;2024-02-15T07:13:43;13.00;99.90
53073;DHT22;38955;48.916;2.336;2024-02-15T07:16:10;13.10;99.90
53073;DHT22;38955;48.916;2.336;2024-02-15T07:18:30;13.00;99.90
53073;DHT22;38955;48.916;2.336;2024-02-15T07:20:49;13.00;99.90
53073;DHT22;38955;48.916;2.336;2024-02-15T07:23:04;13.00;99.90
53073;DHT22;38955;48.916;2.336;2024-02-15T07:25:29;13.00;99.90
53073;DHT22;38955;48.916;2.336;2024-02-15T07:27:44;13.00;99.90
53073;DHT22;38955;48.916;2.336;2024-02-15T07:30:05;13.00;99.90
53073;DHT22;38955;48.916;2.336;2024-02-15T07:32:25;13.10;99.90
53073;DHT22;38955;48.916;2.336;2024-02-15T07:34:50;13.10;99.90
53073;DHT22;38955;48.916;2.336;2024-02-15T07:37:13;13.10;99.90
53073;DHT22;38955;48.916;2.336;2024-02-15T07:39:31;13.10;99.90
53073;DHT22;38955;48.916;2.336;2024-02-15T07:41:50;13.10;99.90
53073;DHT22;38955;48.916;2.336;2024-02-15T07:44:16;13.20;99.90
53073;DHT22;38955;48.916;2.336;2024-02-15T07:46:38;13.20;99.90
53073;DHT22;38955;48.916;2.336;2024-02-15T07:48:55;13.20;99.90
53073;DHT22;38955;48.916;2.336;2024-02-15T07:51:21;13.20;99.90
53073;DHT22;38955;48.916;2.336;2024-02-15T07:53:46;13.20;99.90
53073;DHT22;38955;48.916;2.336;2024-02-15T07:56:19;13.20;99.90
53073;DHT22;38955;48.916;2.336;2024-02-15T07:59:01;13.30;99.90
53073;DHT22;38955;48.916;2.336;2024-02-15T08:01:26;13.30;99.90
53073;DHT22;38955;48.916;2.336;2024-02-15T08:03:53;13.30;99.90
53073;DHT22;38955;48.916;2.336;2024-02-15T08:06:12;13.30;99.90
53073;DHT22;38955;48.916;2.336;2024-02-15T08:08:29;13.30;99.90
53073;DHT22;38955;48.916;2.336;2024-02-15T08:10:39;13.40;99.90
53073;DHT22;38955;48.916;2.336;2024-02-15T08:12:53;13.40;99.90
53073;DHT22;38955;48.916;2.336;2024-02-15T08:15:14;13.50;99.90
53073;DHT22;38955;48.916;2.336;2024-02-15T08:17:31;13.50;99.90
53073;DHT22;38955;48.916;2.336;2024-02-15T08:20:01;13.50;99.90
53073;DHT22;38955;48.916;2.336;2024-02-15T08:22:21;13.50;99.90
53073;DHT22;38955;48.916;2.336;2024-02-15T08:24:38;13.70;99.90
53073;DHT22;38955;48.916;2.336;2024-02-15T08:26:58;13.70;99.90
53073;DHT22;38955;48.916;2.336;2024-02-15T08:29:18;13.60;99.90
53073;DHT22;38955;48.916;2.336;2024-02-15T08:31:30;13.70;99.90
53073;DHT22;38955;48.916;2.336;2024-02-15T08:33:49;13.70;99.90
53073;DHT22;38955;48.916;2.336;2024-02-15T08:35:59;13.80;99.90
53073;DHT22;38955;48.916;2.336;2024-02-15T08:38:20;13.80;99.90
53073;DHT22;38955;48.916;2.336;2024-02-15T08:40:46;13.80;99.90
53073;DHT22;38955;48.916;2.336;2024-02-15T08:43:22;13.80;99.90
53073;DHT22;38955;48.916;2.336;2024-02-15T08:45:41;13.90;99.90
53073;DHT22;38955;48.916;2.336;2024-02-15T08:47:56;13.90;99.90
53073;DHT22;38955;48.916;2.336;2024-02-15T08:50:19;13.90;99.90
53073;DHT22;38955;48.916;2.336;2024-02-15T08:52:52;13.90;99.90
53073;DHT22;38955;48.916;2.336;2024-02-15T08:55:17;14.00;99.90
53073;DHT22;38955;48.916;2.336;2024-02-15T08:57:45;14.00;99.90
53073;DHT22;38955;48.916;2.336;2024-02-15T09:00:10;14.10;99.90
53073;DHT22;38955;48.916;2.336;2024-02-15T09:02:32;14.00;99.90
53073;DHT22;38955;48.916;2.336;2024-02-15T09:04:51;14.00;99.90
53073;DHT22;38955;48.916;2.336;2024-02-15T09:07:14;14.10;99.90
53073;DHT22;38955;48.916;2.336;2024-02-15T09:09:30;14.20;99.90
53073;DHT22;38955;48.916;2.336;2024-02-15T09:11:51;14.20;99.90
53073;DHT22;38955;48.916;2.336;2024-02-15T09:14:10;14.30;99.90
53073;DHT22;38955;48.916;2.336;2024-02-15T09:16:26;14.30;99.90
53073;DHT22;38955;48.916;2.336;2024-02-15T09:18:38;14.40;99.90
53073;DHT22;38955;48.916;2.336;2024-02-15T09:20:55;14.40;99.90
53073;DHT22;38955;48.916;2.336;2024-02-15T09:23:12;14.50;99.90
53073;DHT22;38955;48.916;2.336;2024-02-15T09:25:29;14.40;99.90
53073;DHT22;38955;48.916;2.336;2024-02-15T09:27:40;14.50;99.90
53073;DHT22;38955;48.916;2.336;2024-02-15T09:29:58;14.50;99.90
53073;DHT22;38955;48.916;2.336;2024-02-15T09:32:26;14.50;99.90
53073;DHT22;38955;48.916;2.336;2024-02-15T09:35:09;14.40;99.90
53073;DHT22;38955;48.916;2.336;2024-02-15T09:37:34;14.50;99.90
53073;DHT22;38955;48.916;2.336;2024-02-15T09:39:59;14.60;99.90
53073;DHT22;38955;48.916;2.336;2024-02-15T09:42:31;14.60;99.90
53073;DHT22;38955;48.916;2.336;2024-02-15T09:45:35;14.60;99.90
53073;DHT22;38955;48.916;2.336;2024-02-15T09:48:10;14.70;99.80
53073;DHT22;38955;48.916;2.336;2024-02-15T09:50:25;14.80;99.90
53073;DHT22;38955;48.916;2.336;2024-02-15T09:52:40;14.80;99.50
53073;DHT22;38955;48.916;2.336;2024-02-15T09:54:53;14.80;99.40
53073;DHT22;38955;48.916;2.336;2024-02-15T09:57:12;14.80;99.60
53073;DHT22;38955;48.916;2.336;2024-02-15T09:59:34;14.80;99.50
53073;DHT22;38955;48.916;2.336;2024-02-15T10:01:53;14.90;99.20
53073;DHT22;38955;48.916;2.336;2024-02-15T10:04:10;15.00;99.80
53073;DHT22;38955;48.916;2.336;2024-02-15T10:06:26;15.10;99.70
53073;DHT22;38955;48.916;2.336;2024-02-15T10:08:41;15.20;99.80
53073;DHT22;38955;48.916;2.336;2024-02-15T10:11:10;15.40;99.70
53073;DHT22;38955;48.916;2.336;2024-02-15T10:13:34;15.50;99.20
53073;DHT22;38955;48.916;2.336;2024-02-15T10:15:50;15.50;98.90
53073;DHT22;38955;48.916;2.336;2024-02-15T10:18:16;15.30;98.00
53073;DHT22;38955;48.916;2.336;2024-02-15T10:20:42;15.40;98.90
53073;DHT22;38955;48.916;2.336;2024-02-15T10:23:13;15.40;98.50
53073;DHT22;38955;48.916;2.336;2024-02-15T10:25:40;15.60;99.00
53073;DHT22;38955;48.916;2.336;2024-02-15T10:28:06;15.60;98.30
53073;DHT22;38955;48.916;2.336;2024-02-15T10:30:40;15.80;98.40
53073;DHT22;38955;48.916;2.336;2024-02-15T10:33:26;15.90;98.10
53073;DHT22;38955;48.916;2.336;2024-02-15T10:36:06;16.10;98.40
53073;DHT22;38955;48.916;2.336;2024-02-15T10:38:35;16.20;98.00
53073;DHT22;38955;48.916;2.336;2024-02-15T10:41:05;16.30;97.60
53073;DHT22;38955;48.916;2.336;2024-02-15T10:43:28;16.40;97.40
53073;DHT22;38955;48.916;2.336;2024-02-15T10:45:50;16.50;97.40
53073;DHT22;38955;48.916;2.336;2024-02-15T10:48:31;16.50;96.80
53073;DHT22;38955;48.916;2.336;2024-02-15T10:50:59;16.50;97.10
53073;DHT22;38955;48.916;2.336;2024-02-15T10:53:21;16.50;96.60
53073;DHT22;38955;48.916;2.336;2024-02-15T10:55:44;16.50;96.80
53073;DHT22;38955;48.916;2.336;2024-02-15T10:58:10;16.60;97.10
53073;DHT22;38955;48.916;2.336;2024-02-15T11:00:39;16.60;96.50
53073;DHT22;38955;48.916;2.336;2024-02-15T11:03:05;16.60;96.80
53073;DHT22;38955;48.916;2.336;2024-02-15T11:05:33;16.60;96.40
53073;DHT22;38955;48.916;2.336;2024-02-15T11:07:49;16.70;97.00
53073;DHT22;38955;48.916;2.336;2024-02-15T11:10:01;16.80;96.70
53073;DHT22;38955;48.916;2.336;2024-02-15T11:12:15;16.80;96.30
53073;DHT22;38955;48.916;2.336;2024-02-15T11:14:28;16.90;96.40
53073;DHT22;38955;48.916;2.336;2024-02-15T11:16:58;16.90;95.70
53073;DHT22;38955;48.916;2.336;2024-02-15T11:19:43;16.90;96.20
53073;DHT22;38955;48.916;2.336;2024-02-15T11:21:59;16.90;95.80
53073;DHT22;38955;48.916;2.336;2024-02-15T11:24:31;16.80;96.30
53073;DHT22;38955;48.916;2.336;2024-02-15T11:27:06;16.80;95.70
53073;DHT22;38955;48.916;2.336;2024-02-15T11:29:53;16.90;96.10
53073;DHT22;38955;48.916;2.336;2024-02-15T11:32:42;16.90;96.30
53073;DHT22;38955;48.916;2.336;2024-02-15T11:35:24;16.80;96.10
53073;DHT22;38955;48.916;2.336;2024-02-15T11:38:05;16.90;96.20
53073;DHT22;38955;48.916;2.336;2024-02-15T11:41:04;17.00;96.10
53073;DHT22;38955;48.916;2.336;2024-02-15T11:43:59;17.10;95.90
53073;DHT22;38955;48.916;2.336;2024-02-15T11:46:31;17.20;96.00
53073;DHT22;38955;48.916;2.336;2024-02-15T11:48:57;17.30;95.60
53073;DHT22;38955;48.916;2.336;2024-02-15T11:51:27;17.40;95.80
53073;DHT22;38955;48.916;2.336;2024-02-15T11:53:50;17.50;95.80
53073;DHT22;38955;48.916;2.336;2024-02-15T11:56:10;17.50;95.50
53073;DHT22;38955;48.916;2.336;2024-02-15T11:58:27;17.50;95.40
53073;DHT22;38955;48.916;2.336;2024-02-15T12:01:01;17.70;95.30
53073;DHT22;38955;48.916;2.336;2024-02-15T12:03:40;17.70;94.90
53073;DHT22;38955;48.916;2.336;2024-02-15T12:06:20;17.70;95.20
53073;DHT22;38955;48.916;2.336;2024-02-15T12:09:00;17.70;94.80
53073;DHT22;38955;48.916;2.336;2024-02-15T12:11:40;17.70;94.80
53073;DHT22;38955;48.916;2.336;2024-02-15T12:14:18;17.70;95.00
53073;DHT22;38955;48.916;2.336;2024-02-15T12:16:47;17.80;94.60
53073;DHT22;38955;48.916;2.336;2024-02-15T12:19:26;17.90;94.60
53073;DHT22;38955;48.916;2.336;2024-02-15T12:21:37;17.90;95.00
53073;DHT22;38955;48.916;2.336;2024-02-15T12:24:00;17.90;95.00
53073;DHT22;38955;48.916;2.336;2024-02-15T12:26:13;17.90;94.80
53073;DHT22;38955;48.916;2.336;2024-02-15T12:28:26;17.90;94.60
53073;DHT22;38955;48.916;2.336;2024-02-15T12:33:09;18.10;94.70
53073;DHT22;38955;48.916;2.336;2024-02-15T12:35:14;18.10;94.00
53073;DHT22;38955;48.916;2.336;2024-02-15T12:37:22;18.00;93.30
53073;DHT22;38955;48.916;2.336;2024-02-15T12:39:26;18.20;94.20
53073;DHT22;38955;48.916;2.336;2024-02-15T12:41:30;18.20;94.40
53073;DHT22;38955;48.916;2.336;2024-02-15T12:43:32;18.20;93.60
53073;DHT22;38955;48.916;2.336;2024-02-15T12:45:36;18.20;94.20
53073;DHT22;38955;48.916;2.336;2024-02-15T12:47:38;18.40;94.20
53073;DHT22;38955;48.916;2.336;2024-02-15T12:49:40;18.40;93.50
53073;DHT22;38955;48.916;2.336;2024-02-15T12:51:50;18.50;93.50
53073;DHT22;38955;48.916;2.336;2024-02-15T12:54:08;18.50;93.10
53073;DHT22;38955;48.916;2.336;2024-02-15T12:56:20;18.40;92.90
53073;DHT22;38955;48.916;2.336;2024-02-15T12:58:22;18.40;92.90
53073;DHT22;38955;48.916;2.336;2024-02-15T13:00:27;18.30;92.90
53073;DHT22;38955;48.916;2.336;2024-02-15T13:02:35;18.30;92.90
53073;DHT22;38955;48.916;2.336;2024-02-15T13:04:37;18.30;93.30
53073;DHT22;38955;48.916;2.336;2024-02-15T13:06:40;18.40;93.10
53073;DHT22;38955;48.916;2.336;2024-02-15T13:08:42;18.40;93.40
53073;DHT22;38955;48.916;2.336;2024-02-15T13:10:46;18.30;93.30
53073;DHT22;38955;48.916;2.336;2024-02-15T13:12:51;18.50;93.30
53073;DHT22;38955;48.916;2.336;2024-02-15T13:14:54;18.50;93.10
53073;DHT22;38955;48.916;2.336;2024-02-15T13:16:56;18.50;93.30
53073;DHT22;38955;48.916;2.336;2024-02-15T13:18:59;18.50;93.20
53073;DHT22;38955;48.916;2.336;2024-02-15T13:21:03;18.50;93.00
53073;DHT22;38955;48.916;2.336;2024-02-15T13:23:10;18.50;93.00
53073;DHT22;38955;48.916;2.336;2024-02-15T13:25:24;18.60;93.30
53073;DHT22;38955;48.916;2.336;2024-02-15T13:27:26;18.60;93.30
53073;DHT22;38955;48.916;2.336;2024-02-15T13:29:30;18.50;93.30
53073;DHT22;38955;48.916;2.336;2024-02-15T13:31:34;18.50;93.10
53073;DHT22;38955;48.916;2.336;2024-02-15T13:33:36;18.40;93.00
53073;DHT22;38955;48.916;2.336;2024-02-15T13:35:39;18.40;93.00
53073;DHT22;38955;48.916;2.336;2024-02-15T13:37:42;18.30;93.00
53073;DHT22;38955;48.916;2.336;2024-02-15T13:39:44;18.30;92.80
53073;DHT22;38955;48.916;2.336;2024-02-15T13:41:47;18.30;93.10
53073;DHT22;38955;48.916;2.336;2024-02-15T13:43:49;18.30;93.30
53073;DHT22;38955;48.916;2.336;2024-02-15T13:45:53;18.40;93.30
53073;DHT22;38955;48.916;2.336;2024-02-15T13:47:56;18.40;92.90
53073;DHT22;38955;48.916;2.336;2024-02-15T13:49:59;18.40;93.10
53073;DHT22;38955;48.916;2.336;2024-02-15T13:52:01;18.40;92.90
53073;DHT22;38955;48.916;2.336;2024-02-15T13:54:05;18.50;93.10
53073;DHT22;38955;48.916;2.336;2024-02-15T13:56:07;18.60;92.80
53073;DHT22;38955;48.916;2.336;2024-02-15T13:58:11;18.60;92.60
53073;DHT22;38955;48.916;2.336;2024-02-15T14:00:16;18.70;93.00
53073;DHT22;38955;48.916;2.336;2024-02-15T14:02:26;18.70;92.30
53073;DHT22;38955;48.916;2.336;2024-02-15T14:04:30;18.80;92.80
53073;DHT22;38955;48.916;2.336;2024-02-15T14:06:34;18.70;92.40
53073;DHT22;38955;48.916;2.336;2024-02-15T14:08:38;18.80;92.70
53073;DHT22;38955;48.916;2.336;2024-02-15T14:10:40;18.70;92.60
53073;DHT22;38955;48.916;2.336;2024-02-15T14:12:42;18.70;92.50
53073;DHT22;38955;48.916;2.336;2024-02-15T14:14:44;18.80;92.50
53073;DHT22;38955;48.916;2.336;2024-02-15T14:16:47;18.90;92.00
53073;DHT22;38955;48.916;2.336;2024-02-15T14:18:51;19.00;92.00
53073;DHT22;38955;48.916;2.336;2024-02-15T14:20:53;19.00;91.70
53073;DHT22;38955;48.916;2.336;2024-02-15T14:22:55;19.10;91.70
53073;DHT22;38955;48.916;2.336;2024-02-15T14:24:58;19.10;91.70
53073;DHT22;38955;48.916;2.336;2024-02-15T14:27:00;19.20;91.40
53073;DHT22;38955;48.916;2.336;2024-02-15T14:29:04;19.30;91.70
53073;DHT22;38955;48.916;2.336;2024-02-15T14:31:07;19.30;91.50
53073;DHT22;38955;48.916;2.336;2024-02-15T14:33:29;19.40;91.90
53073;DHT22;38955;48.916;2.336;2024-02-15T14:35:34;19.30;91.90
53073;DHT22;38955;48.916;2.336;2024-02-15T14:37:36;19.30;91.90